createdAt,value
2022-12-19T00:01:36.791Z,28.08
2022-12-19T00:04:08.207Z,26.75
2022-12-19T00:06:43.428Z,27.08
2022-12-19T00:09:12.179Z,28.48
2022-12-19T00:11:40.166Z,28.75
2022-12-19T00:14:08.919Z,26.17
2022-12-19T00:16:35.985Z,26.40
2022-12-19T00:19:03.279Z,24.30
2022-12-19T00:24:03.576Z,25.33
2022-12-19T00:26:36.705Z,22.98
2022-12-19T00:29:11.155Z,27.10
2022-12-19T00:31:41.107Z,23.27
2022-12-19T00:34:09.790Z,29.92
2022-12-19T00:36:36.749Z,27.50
2022-12-19T00:39:08.287Z,27.08
2022-12-19T00:41:37.677Z,22.63
2022-12-19T00:44:12.152Z,30.17
2022-12-19T00:46:42.487Z,30.42
2022-12-19T00:49:12.876Z,28.98
2022-12-19T00:51:39.897Z,29.42
2022-12-19T00:54:09.995Z,28.10
2022-12-19T00:56:38.321Z,28.77
2022-12-19T00:59:08.967Z,21.97
2022-12-19T01:01:38.412Z,28.75
2022-12-19T01:06:54.446Z,27.45
2022-12-19T01:09:28.116Z,26.52
2022-12-19T01:12:13.738Z,26.77
2022-12-19T01:14:40.649Z,27.85
2022-12-19T01:17:07.900Z,29.38
2022-12-19T01:19:38.963Z,17.20
2022-12-19T01:22:09.359Z,25.65
2022-12-19T01:24:36.624Z,25.98
2022-12-19T01:27:03.735Z,22.85
2022-12-19T01:29:32.929Z,27.85
2022-12-19T01:32:01.579Z,24.92
2022-12-19T01:34:31.979Z,27.35
2022-12-19T01:36:59.010Z,27.60
2022-12-19T01:39:25.913Z,25.25
2022-12-19T01:41:56.138Z,26.75
2022-12-19T01:44:24.864Z,27.20
2022-12-19T01:47:00.106Z,27.02
2022-12-19T01:49:31.407Z,28.40
2022-12-19T01:52:01.680Z,25.55
2022-12-19T01:54:34.436Z,28.25
2022-12-19T01:57:03.341Z,25.15
2022-12-19T01:59:37.256Z,29.27
2022-12-19T02:02:33.554Z,28.70
2022-12-19T02:05:04.338Z,27.90
2022-12-19T02:07:32.055Z,21.17
2022-12-19T02:09:59.379Z,27.73
2022-12-19T02:12:37.136Z,27.23
2022-12-19T02:15:06.707Z,25.88
2022-12-19T02:17:58.940Z,26.38
2022-12-19T02:20:31.953Z,26.58
2022-12-19T02:23:36.692Z,27.02
2022-12-19T02:26:15.865Z,25.42
2022-12-19T02:29:04.363Z,27.48
2022-12-19T02:31:37.127Z,26.85
2022-12-19T02:34:25.724Z,25.23
2022-12-19T02:37:03.775Z,29.00
2022-12-19T02:42:03.817Z,28.55
2022-12-19T02:44:41.952Z,24.33
2022-12-19T02:47:09.779Z,27.95
2022-12-19T02:49:38.874Z,28.90
2022-12-19T02:52:33.176Z,25.75
2022-12-19T02:55:10.627Z,27.55
2022-12-19T02:57:56.535Z,29.75
2022-12-19T03:00:26.154Z,29.38
2022-12-19T03:03:16.106Z,27.02
2022-12-19T03:06:08.308Z,28.52
2022-12-19T03:09:01.338Z,27.95
2022-12-19T03:11:33.172Z,26.40
2022-12-19T03:14:07.485Z,26.02
2022-12-19T03:16:36.737Z,25.80
2022-12-19T03:19:05.608Z,26.83
2022-12-19T03:21:36.532Z,26.42
2022-12-19T03:24:05.038Z,25.17
2022-12-19T03:26:36.748Z,28.00
2022-12-19T03:29:17.535Z,27.33
2022-12-19T03:31:46.608Z,25.92
2022-12-19T03:34:30.530Z,27.63
2022-12-19T03:37:01.619Z,25.85
2022-12-19T03:39:30.203Z,26.33
2022-12-19T03:42:17.725Z,24.88
2022-12-19T03:44:45.011Z,24.25
2022-12-19T03:47:23.406Z,28.05
2022-12-19T03:49:51.106Z,28.35
2022-12-19T03:52:54.380Z,24.30
2022-12-19T03:55:27.009Z,24.67
2022-12-19T03:57:58.755Z,24.27
2022-12-19T04:00:26.385Z,27.05
2022-12-19T04:02:55.950Z,27.42
2022-12-19T04:05:25.519Z,25.88
2022-12-19T04:07:55.705Z,24.83
2022-12-19T04:10:25.316Z,23.50
2022-12-19T04:13:09.267Z,19.38
2022-12-19T04:15:45.899Z,15.75
2022-12-19T04:18:14.120Z,13.15
2022-12-19T04:20:46.151Z,24.55
2022-12-19T04:23:27.482Z,19.30
2022-12-19T04:26:01.130Z,21.85
2022-12-19T04:28:35.395Z,19.40
2022-12-19T04:31:03.176Z,17.17
2022-12-19T04:33:30.339Z,15.50
2022-12-19T04:35:57.267Z,24.45
2022-12-19T04:38:24.428Z,23.67
2022-12-19T04:40:51.325Z,14.93
2022-12-19T04:43:18.353Z,17.02
2022-12-19T04:45:45.339Z,18.13
2022-12-19T04:48:12.348Z,18.45
2022-12-19T04:50:39.320Z,20.20
2022-12-19T04:53:07.124Z,21.30
2022-12-19T04:55:34.036Z,17.77
2022-12-19T04:58:00.968Z,23.15
2022-12-19T05:00:28.032Z,17.52
2022-12-19T05:02:55.211Z,17.50
2022-12-19T05:05:22.369Z,22.88
2022-12-19T05:07:49.497Z,23.00
2022-12-19T05:10:16.871Z,24.92
2022-12-19T05:12:43.920Z,39.20
2022-12-19T05:15:12.034Z,45.47
2022-12-19T05:17:39.042Z,33.65
2022-12-19T05:20:07.122Z,40.80
2022-12-19T05:22:34.176Z,40.95
2022-12-19T05:25:01.284Z,25.17
2022-12-19T05:27:28.268Z,24.65
2022-12-19T05:29:55.195Z,34.75
2022-12-19T05:32:22.318Z,31.98
2022-12-19T05:34:49.255Z,35.80
2022-12-19T05:37:16.250Z,18.58
2022-12-19T05:39:43.260Z,19.38
2022-12-19T05:42:12.480Z,15.30
2022-12-19T05:44:40.008Z,17.35
2022-12-19T05:47:07.032Z,17.10
2022-12-19T05:49:33.991Z,13.73
2022-12-19T05:52:00.931Z,16.02
2022-12-19T05:54:28.411Z,18.73
2022-12-19T05:56:55.648Z,25.85
2022-12-19T05:59:22.752Z,27.02
2022-12-19T06:01:49.798Z,24.65
2022-12-19T06:04:16.910Z,21.58
2022-12-19T06:06:43.981Z,14.32
2022-12-19T06:09:11.064Z,27.98
2022-12-19T06:11:37.991Z,22.95
2022-12-19T06:14:07.725Z,18.20
2022-12-19T06:16:34.733Z,22.30
2022-12-19T06:19:01.701Z,40.95
2022-12-19T06:21:28.661Z,32.38
2022-12-19T06:23:55.827Z,42.10
2022-12-19T06:26:23.004Z,17.30
2022-12-19T06:28:51.920Z,23.60
2022-12-19T06:31:23.557Z,31.05
2022-12-19T06:33:52.124Z,30.08
2022-12-19T06:36:21.720Z,21.27
2022-12-19T06:38:49.529Z,37.25
2022-12-19T06:41:35.657Z,33.80
2022-12-19T06:44:05.318Z,30.83
2022-12-19T06:46:32.285Z,31.15
2022-12-19T06:48:59.687Z,30.00
2022-12-19T06:51:26.834Z,32.90
2022-12-19T06:53:54.162Z,29.42
2022-12-19T06:56:21.246Z,29.88
2022-12-19T06:58:48.693Z,30.17
2022-12-19T07:01:24.641Z,28.45
2022-12-19T07:03:51.797Z,20.77
2022-12-19T07:06:18.827Z,17.92
2022-12-19T07:08:45.739Z,24.20
2022-12-19T07:11:15.614Z,22.40
2022-12-19T07:16:10.159Z,18.33
2022-12-19T07:18:39.568Z,23.52
2022-12-19T07:21:07.273Z,17.30
2022-12-19T07:23:34.558Z,23.85
2022-12-19T07:26:01.558Z,17.30
2022-12-19T07:28:28.805Z,24.23
2022-12-19T07:30:56.135Z,27.15
2022-12-19T07:33:23.152Z,25.45
2022-12-19T07:35:50.133Z,25.13
2022-12-19T07:38:17.092Z,22.73
2022-12-19T07:40:44.322Z,20.83
2022-12-19T07:43:11.403Z,17.40
2022-12-19T07:45:38.893Z,25.38
2022-12-19T07:48:06.871Z,19.27
2022-12-19T07:50:34.067Z,21.85
2022-12-19T07:53:01.187Z,17.70
2022-12-19T07:55:30.651Z,21.10
2022-12-19T07:57:57.674Z,17.67
2022-12-19T08:00:24.723Z,18.02
2022-12-19T08:02:51.955Z,15.25
2022-12-19T08:05:20.214Z,15.85
2022-12-19T08:07:47.304Z,14.10
2022-12-19T08:10:15.215Z,17.08
2022-12-19T08:12:42.238Z,16.58
2022-12-19T08:15:09.713Z,16.42
2022-12-19T08:17:41.457Z,18.98
2022-12-19T08:20:11.306Z,18.52
2022-12-19T08:22:38.407Z,18.35
2022-12-19T08:25:07.459Z,13.23
2022-12-19T08:27:35.077Z,12.05
2022-12-19T08:30:02.635Z,16.77
2022-12-19T08:32:30.116Z,15.35
2022-12-19T08:34:57.280Z,18.92
2022-12-19T08:37:24.279Z,19.08
2022-12-19T08:39:51.758Z,17.27
2022-12-19T08:42:18.993Z,17.70
2022-12-19T08:44:46.035Z,17.25
2022-12-19T08:47:13.559Z,15.80
2022-12-19T08:49:40.651Z,17.20
2022-12-19T08:52:07.879Z,11.35
2022-12-19T08:54:34.911Z,12.35
2022-12-19T08:57:02.091Z,14.10
2022-12-19T08:59:30.881Z,22.35
2022-12-19T09:02:02.427Z,21.17
2022-12-19T09:05:31.347Z,17.27
2022-12-19T09:07:17.189Z,19.73
2022-12-19T09:09:45.099Z,20.58
2022-12-19T09:12:16.552Z,21.65
2022-12-19T09:14:44.517Z,20.67
2022-12-19T09:17:11.586Z,17.27
2022-12-19T09:19:39.017Z,15.73
2022-12-19T09:22:07.912Z,24.50
2022-12-19T09:24:34.891Z,16.38
2022-12-19T09:27:02.398Z,15.65
2022-12-19T09:29:33.626Z,18.67
2022-12-19T09:32:02.280Z,21.35
2022-12-19T09:34:36.234Z,20.13
2022-12-19T09:37:07.580Z,19.35
2022-12-19T09:39:35.923Z,19.25
2022-12-19T09:42:21.457Z,19.15
2022-12-19T09:44:57.293Z,19.48
2022-12-19T09:47:27.557Z,16.75
2022-12-19T09:49:54.915Z,21.33
2022-12-19T09:52:38.840Z,21.48
2022-12-19T09:55:44.214Z,17.95
2022-12-19T09:58:34.856Z,16.83
2022-12-19T10:01:07.603Z,20.05
2022-12-19T10:03:45.107Z,22.42
2022-12-19T10:07:11.126Z,18.60
2022-12-19T10:10:09.791Z,15.52
2022-12-19T10:12:38.374Z,16.77
2022-12-19T10:15:10.289Z,24.02
2022-12-19T10:17:52.342Z,18.38
2022-12-19T10:20:27.771Z,18.23
2022-12-19T10:23:10.025Z,21.33
2022-12-19T10:25:58.667Z,17.13
2022-12-19T10:29:03.190Z,21.35
2022-12-19T10:31:38.513Z,17.85
2022-12-19T10:34:22.258Z,21.27
2022-12-19T10:37:26.881Z,18.85
2022-12-19T10:40:05.771Z,18.38
2022-12-19T10:43:19.337Z,23.85
2022-12-19T10:45:58.996Z,19.45
2022-12-19T10:48:30.630Z,21.30
2022-12-19T10:51:06.359Z,24.88
2022-12-19T10:53:34.460Z,26.65
2022-12-19T10:56:11.866Z,14.60
2022-12-19T10:58:42.891Z,18.52
2022-12-19T11:01:22.607Z,15.05
2022-12-19T11:04:12.788Z,15.23
2022-12-19T11:07:03.848Z,12.23
2022-12-19T11:09:41.736Z,19.33
2022-12-19T11:15:20.552Z,14.88
2022-12-19T11:19:33.116Z,15.85
2022-12-19T11:28:35.651Z,11.40
2022-12-19T11:29:30.622Z,15.43
2022-12-19T11:29:45.794Z,17.20
2022-12-19T11:30:46.603Z,19.25
2022-12-19T11:33:18.858Z,27.48
2022-12-19T11:36:06.495Z,27.33
2022-12-19T11:38:36.873Z,20.73
2022-12-19T11:41:14.206Z,20.63
2022-12-19T11:43:51.517Z,20.13
2022-12-19T11:46:35.068Z,20.70
2022-12-19T11:49:30.640Z,18.13
2022-12-19T11:52:09.099Z,20.55
2022-12-19T11:54:55.546Z,18.73
2022-12-19T11:57:22.904Z,19.48
2022-12-19T11:59:52.485Z,19.15
2022-12-19T12:02:28.594Z,17.67
2022-12-19T12:05:23.860Z,20.42
2022-12-19T12:10:53.785Z,19.63
2022-12-19T12:17:54.178Z,20.90
2022-12-19T12:22:50.059Z,19.20
2022-12-19T12:31:12.277Z,14.30
2022-12-19T12:31:26.161Z,21.52
2022-12-19T12:31:39.752Z,33.05
2022-12-19T12:31:43.908Z,19.10
2022-12-19T12:31:58.648Z,11.73
2022-12-19T12:35:54.206Z,18.40
2022-12-19T12:38:28.809Z,21.77
2022-12-19T12:41:52.278Z,21.17
2022-12-19T12:44:22.640Z,17.90
2022-12-19T12:47:26.451Z,19.15
2022-12-19T12:50:15.288Z,22.42
2022-12-19T12:52:45.963Z,24.08
2022-12-19T12:55:18.324Z,19.48
2022-12-19T12:57:45.525Z,33.33
2022-12-19T13:00:23.382Z,13.13
2022-12-19T13:03:11.686Z,23.75
2022-12-19T13:06:05.375Z,21.05
2022-12-19T13:08:44.186Z,20.00
2022-12-19T13:11:54.852Z,15.70
2022-12-19T13:14:39.791Z,20.48
2022-12-19T13:17:11.907Z,23.27
2022-12-19T13:20:17.253Z,24.00
2022-12-19T13:22:46.664Z,21.38
2022-12-19T13:25:38.287Z,23.45
2022-12-19T13:28:07.841Z,22.67
2022-12-19T13:30:50.541Z,23.52
2022-12-19T13:33:22.485Z,20.48
2022-12-19T13:39:23.728Z,21.88
2022-12-19T13:40:02.472Z,22.98
2022-12-19T13:42:00.256Z,22.25
2022-12-19T13:44:28.182Z,24.40
2022-12-19T13:46:55.604Z,23.20
2022-12-19T13:49:34.566Z,28.45
2022-12-19T13:52:02.968Z,25.52
2022-12-19T13:54:34.820Z,25.08
2022-12-19T13:57:08.857Z,22.40
2022-12-19T13:59:38.497Z,28.23
2022-12-19T14:02:23.996Z,23.42
2022-12-19T14:04:51.549Z,24.15
2022-12-19T14:07:34.878Z,24.95
2022-12-19T14:11:32.417Z,23.95
2022-12-19T14:13:44.577Z,19.10
2022-12-19T14:16:43.345Z,24.58
2022-12-19T14:19:36.842Z,26.02
2022-12-19T14:22:28.474Z,24.30
2022-12-19T14:25:49.299Z,26.77
2022-12-19T14:28:17.826Z,23.77
2022-12-19T14:30:47.953Z,23.58
2022-12-19T14:33:43.820Z,26.97
2022-12-19T14:36:14.734Z,27.98
2022-12-19T14:39:23.438Z,24.27
2022-12-19T14:42:00.936Z,25.60
2022-12-19T14:52:08.197Z,23.70
2022-12-19T14:53:52.391Z,23.55
2022-12-19T14:54:17.638Z,23.67
2022-12-19T14:54:29.928Z,24.55
2022-12-19T14:56:40.602Z,24.80
2022-12-19T14:59:05.384Z,21.70
2022-12-19T15:01:34.407Z,24.17
2022-12-19T15:04:53.081Z,20.63
2022-12-19T15:07:09.976Z,27.65
2022-12-19T15:11:11.007Z,27.45
2022-12-19T15:14:53.290Z,24.88
2022-12-19T15:16:27.886Z,25.77
2022-12-19T15:18:59.874Z,21.95
2022-12-19T15:21:28.613Z,24.20
2022-12-19T15:23:55.823Z,25.02
2022-12-19T15:26:33.003Z,22.05
2022-12-19T15:29:00.535Z,22.92
2022-12-19T15:31:39.263Z,27.02
2022-12-19T15:34:36.265Z,23.08
2022-12-19T15:37:05.348Z,26.58
2022-12-19T15:39:32.561Z,25.98
2022-12-19T15:42:00.740Z,25.00
2022-12-19T15:44:37.341Z,25.27
2022-12-19T15:47:06.709Z,21.27
2022-12-19T15:49:35.316Z,26.23
2022-12-19T15:52:03.085Z,26.98
2022-12-19T15:57:38.044Z,26.38
2022-12-19T16:00:08.542Z,24.35
2022-12-19T16:05:24.768Z,29.65
2022-12-19T16:07:52.116Z,29.75
2022-12-19T16:10:19.158Z,25.50
2022-12-19T16:12:52.553Z,31.08
2022-12-19T16:15:46.356Z,26.23
2022-12-19T16:18:14.722Z,28.80
2022-12-19T16:20:43.033Z,26.83
2022-12-19T16:23:11.255Z,26.45
2022-12-19T16:25:49.705Z,15.55
2022-12-19T16:28:22.629Z,26.27
2022-12-19T16:30:50.716Z,28.38
2022-12-19T16:33:21.589Z,27.55
2022-12-19T16:36:07.431Z,22.60
2022-12-19T16:38:35.891Z,25.77
2022-12-19T16:41:03.517Z,28.75
2022-12-19T16:43:33.903Z,28.30
2022-12-19T16:46:01.961Z,25.20
2022-12-19T16:48:30.374Z,26.33
2022-12-19T16:50:58.676Z,27.67
2022-12-19T16:53:26.211Z,24.98
2022-12-19T16:55:54.749Z,26.90
2022-12-19T16:58:24.756Z,25.38
2022-12-19T17:00:53.178Z,26.75
2022-12-19T17:03:41.176Z,28.00
2022-12-19T17:06:16.559Z,25.45
2022-12-19T17:08:44.894Z,21.63
2022-12-19T17:11:16.073Z,25.85
2022-12-19T17:13:44.304Z,23.65
2022-12-19T17:16:12.345Z,24.27
2022-12-19T17:18:43.007Z,28.20
2022-12-19T17:21:17.367Z,28.33
2022-12-19T17:23:44.594Z,27.70
2022-12-19T17:26:17.701Z,30.23
2022-12-19T17:28:49.166Z,21.98
2022-12-19T17:31:26.313Z,30.80
2022-12-19T17:33:55.900Z,26.58
2022-12-19T17:36:31.174Z,29.13
2022-12-19T17:39:01.907Z,25.23
2022-12-19T17:41:29.047Z,25.73
2022-12-19T17:43:56.030Z,27.23
2022-12-19T17:46:24.554Z,26.92
2022-12-19T17:48:52.929Z,29.65
2022-12-19T17:51:21.559Z,29.98
2022-12-19T17:53:49.943Z,28.55
2022-12-19T17:56:18.947Z,28.63
2022-12-19T17:58:46.281Z,30.15
2022-12-19T18:01:20.318Z,25.98
2022-12-19T18:03:48.304Z,27.40
2022-12-19T18:06:16.688Z,27.42
2022-12-19T18:08:44.610Z,31.05
2022-12-19T18:11:23.750Z,28.85
2022-12-19T18:13:51.309Z,28.95
2022-12-19T18:16:22.399Z,29.02
2022-12-19T18:18:50.036Z,29.83
2022-12-19T18:21:24.299Z,29.35
2022-12-19T18:23:51.801Z,30.02
2022-12-19T18:26:18.873Z,30.23
2022-12-19T18:28:46.030Z,24.27
2022-12-19T18:31:25.817Z,29.27
2022-12-19T18:33:54.399Z,30.17
2022-12-19T18:36:25.834Z,31.20
2022-12-19T18:38:53.523Z,28.80
2022-12-19T18:41:21.296Z,27.45
2022-12-19T18:43:49.148Z,28.90
2022-12-19T18:46:19.102Z,32.60
2022-12-19T18:48:46.384Z,30.75
2022-12-19T18:51:16.906Z,30.65
2022-12-19T18:53:45.772Z,29.50
2022-12-19T18:56:13.234Z,30.98
2022-12-19T18:58:40.424Z,33.08
2022-12-19T19:01:14.234Z,30.48
2022-12-19T19:03:44.794Z,31.38
2022-12-19T19:06:22.291Z,30.13
2022-12-19T19:08:50.405Z,31.42
2022-12-19T19:11:32.854Z,30.92
2022-12-19T19:14:03.591Z,30.45
2022-12-19T19:16:33.236Z,26.55
2022-12-19T19:19:01.213Z,32.13
2022-12-19T19:21:30.425Z,27.75
2022-12-19T19:24:13.104Z,34.58
2022-12-19T19:26:40.601Z,32.50
2022-12-19T19:29:07.823Z,33.53
2022-12-19T19:31:38.650Z,34.45
2022-12-19T19:34:13.423Z,33.37
2022-12-19T19:36:43.111Z,33.78
2022-12-19T19:39:10.881Z,31.23
2022-12-19T19:41:37.954Z,34.47
2022-12-19T19:44:05.303Z,36.17
2022-12-19T19:46:32.847Z,34.42
2022-12-19T19:48:59.967Z,34.70
2022-12-19T19:51:29.092Z,36.92
2022-12-19T19:53:56.655Z,29.55
2022-12-19T19:56:23.828Z,35.58
2022-12-19T19:58:50.838Z,35.92
2022-12-19T20:01:17.900Z,36.45
2022-12-19T20:03:45.390Z,35.70
2022-12-19T20:06:12.860Z,36.85
2022-12-19T20:08:40.833Z,35.75
2022-12-19T20:11:09.246Z,37.40
2022-12-19T20:13:37.659Z,36.35
2022-12-19T20:16:09.715Z,34.15
2022-12-19T20:18:37.655Z,38.47
2022-12-19T20:21:12.690Z,35.22
2022-12-19T20:23:41.039Z,38.53
2022-12-19T20:26:08.121Z,38.85
2022-12-19T20:28:35.379Z,37.92
2022-12-19T20:31:03.169Z,37.97
2022-12-19T20:33:30.613Z,38.53
2022-12-19T20:35:58.887Z,41.15
2022-12-19T20:38:26.352Z,37.65
2022-12-19T20:40:55.952Z,37.60
2022-12-19T20:43:25.299Z,37.15
2022-12-19T20:45:53.073Z,38.08
2022-12-19T20:48:21.501Z,38.55
2022-12-19T20:50:48.706Z,38.20
2022-12-19T20:53:17.638Z,37.67
2022-12-19T20:55:57.793Z,38.50
2022-12-19T20:58:27.598Z,36.25
2022-12-19T21:00:56.600Z,37.97
2022-12-19T21:03:28.487Z,37.33
2022-12-19T21:05:57.170Z,40.25
2022-12-19T21:08:26.179Z,37.38
2022-12-19T21:10:55.078Z,37.05
2022-12-19T21:13:23.584Z,35.63
2022-12-19T21:15:59.253Z,36.22
2022-12-19T21:18:27.015Z,34.95
2022-12-19T21:20:54.563Z,32.58
2022-12-19T21:23:25.458Z,32.65
2022-12-19T21:25:53.279Z,32.67
2022-12-19T21:28:21.417Z,32.90
2022-12-19T21:30:57.930Z,33.40
2022-12-19T21:33:25.494Z,31.90
2022-12-19T21:35:52.471Z,33.47
2022-12-19T21:38:19.600Z,32.53
2022-12-19T21:40:46.904Z,30.25
2022-12-19T21:43:13.897Z,33.45
2022-12-19T21:45:41.197Z,33.20
2022-12-19T21:48:08.356Z,30.17
2022-12-19T21:50:35.597Z,29.90
2022-12-19T21:53:02.786Z,26.00
2022-12-19T21:55:29.740Z,30.27
2022-12-19T21:57:56.821Z,28.65
2022-12-19T22:00:23.930Z,25.85
2022-12-19T22:03:12.711Z,27.23
2022-12-19T22:05:38.614Z,25.55
2022-12-19T22:08:05.761Z,22.85
2022-12-19T22:10:32.744Z,23.40
2022-12-19T22:12:59.710Z,22.67
2022-12-19T22:15:26.741Z,22.67
2022-12-19T22:17:53.894Z,20.20
2022-12-19T22:20:21.207Z,19.30
2022-12-19T22:22:48.078Z,18.73
2022-12-19T22:25:15.575Z,19.83
2022-12-19T22:27:42.576Z,17.52
2022-12-19T22:30:11.365Z,16.77
2022-12-19T22:32:38.596Z,17.08
2022-12-19T22:35:06.255Z,16.77
2022-12-19T22:37:33.346Z,17.98
2022-12-19T22:40:00.701Z,17.38
2022-12-19T22:42:28.029Z,17.38
2022-12-19T22:44:55.097Z,18.02
2022-12-19T22:47:22.025Z,16.67
2022-12-19T22:49:52.183Z,18.10
2022-12-19T22:52:19.575Z,16.48
2022-12-19T22:54:46.575Z,17.35
2022-12-19T22:57:13.447Z,17.58
2022-12-19T22:59:40.599Z,17.20
2022-12-19T23:02:07.830Z,17.52
2022-12-19T23:04:36.092Z,14.57
2022-12-19T23:07:03.064Z,17.85
2022-12-19T23:09:29.960Z,16.50
2022-12-19T23:11:56.921Z,17.10
2022-12-19T23:14:23.881Z,15.75
2022-12-19T23:16:51.237Z,16.38
2022-12-19T23:19:18.626Z,17.00
2022-12-19T23:21:46.035Z,16.35
2022-12-19T23:24:13.483Z,15.93
2022-12-19T23:26:40.834Z,14.52
2022-12-19T23:29:11.158Z,15.45
2022-12-19T23:31:43.081Z,14.27
2022-12-19T23:34:10.732Z,14.38
2022-12-19T23:39:25.150Z,12.68
2022-12-19T23:41:52.044Z,12.60
2022-12-19T23:44:19.139Z,13.35
2022-12-19T23:46:46.584Z,12.85
2022-12-19T23:49:13.534Z,13.88
2022-12-19T23:51:40.452Z,13.60
2022-12-19T23:54:08.863Z,13.15
2022-12-19T23:56:36.291Z,12.77
2022-12-19T23:59:03.483Z,12.48
